createdAt,value
2022-12-25T09:00:07.267Z,3.90
2022-12-25T09:02:34.207Z,3.97
2022-12-25T09:05:01.002Z,3.47
2022-12-25T09:07:27.675Z,4.37
2022-12-25T09:09:54.262Z,4.40
2022-12-25T09:12:21.007Z,5.87
2022-12-25T09:14:47.609Z,10.47
2022-12-25T09:17:14.208Z,12.03
2022-12-25T09:19:40.821Z,10.70
2022-12-25T09:22:07.408Z,8.97
2022-12-25T09:24:34.012Z,6.20
2022-12-25T09:27:00.632Z,4.90
2022-12-25T09:29:27.749Z,4.83
2022-12-25T09:31:54.425Z,4.30
2022-12-25T09:34:20.994Z,4.57
2022-12-25T09:36:47.597Z,4.13
2022-12-25T09:39:14.184Z,3.63
2022-12-25T09:41:53.568Z,3.13
2022-12-25T09:44:24.471Z,3.33
2022-12-25T09:46:54.869Z,3.23
2022-12-25T09:49:42.201Z,3.53
2022-12-25T09:52:13.876Z,3.60
2022-12-25T09:54:49.629Z,4.43
2022-12-25T09:57:16.409Z,3.87
2022-12-25T09:59:44.685Z,3.33
2022-12-25T10:02:36.743Z,3.83
2022-12-25T10:05:25.514Z,3.40
2022-12-25T10:08:01.400Z,3.40
2022-12-25T10:10:56.968Z,2.93
2022-12-25T10:13:52.331Z,3.00
2022-12-25T10:16:32.091Z,2.80
2022-12-25T10:19:10.607Z,3.23
2022-12-25T10:21:37.349Z,29.77
2022-12-25T10:24:25.144Z,4.80
2022-12-25T10:26:53.874Z,3.37
2022-12-25T10:29:20.478Z,3.40
2022-12-25T10:31:49.935Z,3.83
2022-12-25T10:34:16.910Z,3.80
2022-12-25T10:36:45.075Z,4.07
2022-12-25T10:39:17.555Z,3.80
2022-12-25T10:42:18.063Z,3.60
2022-12-25T10:45:02.467Z,3.40
2022-12-25T10:47:33.633Z,3.20
2022-12-25T10:50:01.648Z,2.60
2022-12-25T10:52:29.203Z,2.57
2022-12-25T10:54:56.383Z,2.37
2022-12-25T10:57:24.723Z,2.53
2022-12-25T10:59:56.551Z,1.97
2022-12-25T11:02:28.999Z,1.93
2022-12-25T11:05:10.158Z,1.67
2022-12-25T11:07:46.807Z,2.03
2022-12-25T11:10:31.513Z,2.50
2022-12-25T11:12:59.565Z,2.80
2022-12-25T11:15:45.268Z,2.87
2022-12-25T11:18:22.480Z,1.80
2022-12-25T11:20:54.913Z,2.00
2022-12-25T11:23:23.317Z,3.40
2022-12-25T11:26:03.300Z,2.20
2022-12-25T11:28:31.517Z,3.10
2022-12-25T11:31:01.901Z,2.10
2022-12-25T11:33:34.834Z,2.33
2022-12-25T11:36:06.452Z,4.40
2022-12-25T11:38:33.179Z,4.33
2022-12-25T11:41:01.466Z,2.53
2022-12-25T11:43:56.470Z,3.40
2022-12-25T11:46:27.911Z,3.57
2022-12-25T11:49:00.757Z,2.77
2022-12-25T11:51:33.218Z,2.57
2022-12-25T11:54:05.083Z,2.27
2022-12-25T11:56:31.852Z,2.57
2022-12-25T11:59:31.280Z,25.13
2022-12-25T12:02:18.904Z,10.10
2022-12-25T12:04:49.100Z,21.10
2022-12-25T12:07:27.814Z,77.87
2022-12-25T12:10:07.569Z,91.07
2022-12-25T12:12:54.825Z,53.17
2022-12-25T12:15:41.556Z,17.83
2022-12-25T12:18:16.888Z,42.17
2022-12-25T12:20:43.572Z,37.23
2022-12-25T12:23:16.856Z,3.83
2022-12-25T12:25:44.745Z,3.30
2022-12-25T12:28:21.616Z,3.43
2022-12-25T12:31:03.199Z,3.40
2022-12-25T12:33:42.580Z,3.67
2022-12-25T12:36:12.450Z,3.83
2022-12-25T12:38:41.183Z,3.93
2022-12-25T12:41:09.200Z,4.53
2022-12-25T12:43:45.442Z,4.37
2022-12-25T12:46:36.661Z,5.43
2022-12-25T12:49:32.865Z,5.93
2022-12-25T12:52:07.223Z,7.10
2022-12-25T12:55:18.101Z,5.53
2022-12-25T12:57:44.849Z,11.53
2022-12-25T13:00:17.849Z,18.50
2022-12-25T13:03:35.497Z,10.57
2022-12-25T13:06:21.104Z,7.23
2022-12-25T13:09:11.015Z,7.60
2022-12-25T13:11:40.909Z,6.87
2022-12-25T13:14:16.245Z,6.83
2022-12-25T13:16:45.819Z,6.80
2022-12-25T13:19:22.361Z,6.60
2022-12-25T13:21:59.068Z,6.80
2022-12-25T13:24:30.624Z,6.70
2022-12-25T13:26:57.545Z,6.70
2022-12-25T13:29:28.919Z,7.00
2022-12-25T13:31:56.513Z,7.23
2022-12-25T13:34:42.339Z,7.63
2022-12-25T13:37:21.540Z,7.30
2022-12-25T13:40:02.162Z,7.60
2022-12-25T13:42:32.865Z,7.00
2022-12-25T13:45:02.032Z,7.60
2022-12-25T13:47:56.132Z,8.30
2022-12-25T13:50:35.089Z,9.30
2022-12-25T13:53:16.786Z,13.00
2022-12-25T19:24:44.349Z,13.77
